x

Bodega Bay - 48nm Nnw Of San Francisco, Ca (46013) Wave Buoy

4:50pm - Sat 28th Mar 2015 All times are PDT. -7 hours from GMT.

  • Sig Wave height 9.8ft
  • Peak Period 8s
  • Average Period 6s
  • Wind
    31mph, 43mph gusts
  • Sea Temp 54°f
  • Air Temp 55°f
  • Sea Pressure 1019.4mb
  • Bodega Bay - 48nm Nnw Of San Francisco, Ca
  • Bodega Bay - 48nm Nnw Of San Francisco, Ca

More Historic Weather Station data

Upgrade to MSW Pro to gain access to the past 30 days of data for over 8000 Wavebouys and Weather Stations around the globe.

Join Pro

Comparision Forecast

View Surf forecast
   
Sat 03/28 4:50pm 10ft 8s 6s 31 43 mph 1019.4mb 54f 55f
3:50pm 10ft 12s 6s 29 34 mph 1019.9mb 54f 55f
2:50pm 9ft 12s 6s 27 34 mph 1020.5mb 54f 56f
1:50pm 9ft 11s 6s 25 31 mph 1021.6mb 54f 56f
12:50pm 8.5ft 13s 6s 25 29 mph 1022.3mb 54f 55f
11:50am 9ft 8s 6s 27 31 mph 1022.9mb 54f 55f
10:50am 9ft 11s 6s 27 31 mph 1022.7mb 54f 55f
9:50am 10ft 7s 6s 29 36 mph 1022.5mb 54f 55f
8:50am 9ft 7s 6s 29 36 mph 1022.1mb 54f 55f
7:50am 10ft 7s 6s 34 40 mph 1021.2mb 55f 55f
6:50am 9.5ft 7s 6s 31 36 mph 1020.8mb 55f 55f
5:50am 9.5ft 7s 6s 25 31 mph 1021.2mb 55f 55f
4:50am 10.5ft 7s 6s 27 34 mph 1020.6mb 55f 55f
3:50am 9ft 13s 6s 29 38 mph 1020.8mb 55f 55f
2:50am 10ft 13s 6s 29 36 mph 1021mb 55f 55f
1:50am 9ft 12s 6s 31 38 mph 1021.4mb 55f 55f
12:50am 8ft 11s 6s 27 34 mph 1021.8mb 55f 56f
Fri 03/27 11:50pm 9.5ft 11s 7s 27 34 mph 1021.8mb 56f 56f
10:50pm 9ft 11s 6s 25 27 mph 1021.7mb 56f 56f
9:50pm 8.5ft 11s 6s 29 38 mph 1021.4mb 56f 55f
8:50pm 10ft 13s 6s 31 38 mph 1020.8mb 56f 56f
7:50pm 9.5ft 14s 6s 34 40 mph 1020mb 56f 56f
6:50pm 9ft 13s 6s 29 38 mph 1020.2mb 56f 55f
5:50pm 9ft 11s 6s 27 36 mph 1020.2mb 56f 55f
4:50pm 8ft 14s 6s 25 29 mph 1020.4mb 56f 55f
3:50pm 8ft 11s 6s 25 29 mph 1020.6mb 56f 55f
2:50pm 8ft 11s 6s 25 29 mph 1021.2mb 56f 54f
1:50pm  -   -   -  22 27 mph 1021.8mb 56f 54f
12:50pm 7.5ft 11s 7s 22 25 mph 1022.4mb 55f 54f
11:50am 7ft 11s 7s 18 22 mph 1022.5mb 55f 53f
10:50am 6.5ft 11s 7s 18 22 mph 1022.5mb 55f 53f
9:50am 7ft 11s 8s 16 20 mph 1021.9mb 54f 53f
8:50am 7ft 11s 8s 13 16 mph 1021.2mb 54f 52f
7:50am 6.5ft 11s 7s 11 16 mph 1020.6mb 54f 52f
6:50am 5.5ft 11s 7s 11 16 mph 1020mb 54f 52f
5:50am 5.5ft 10s 7s 11 13 mph 1019.5mb 53f 52f
4:50am 6ft 10s 8s 13 16 mph 1019.5mb 53f 51f
3:50am 6ft 11s 8s 11 16 mph 1019.7mb 53f 51f
2:50am 6.5ft 11s 8s 11 16 mph 1019.9mb 54f 51f
1:50am 7ft 11s 8s 11 16 mph 1020.3mb 54f 52f
12:50am 6ft 11s 8s 11 13 mph 1020mb 54f 51f
Thu 03/26 11:50pm 6.5ft 11s 8s 11 13 mph 1019.9mb 54f 52f
10:50pm 7ft 12s 8s 11 13 mph 1020mb 54f 52f
9:50pm 6ft 11s 7s 13 16 mph 1019.5mb 55f 52f
8:50pm 6ft 11s 7s 11 13 mph 1019.3mb 55f 52f
7:50pm 6.5ft 11s 8s 11 13 mph 1018.9mb 55f 52f
6:50pm 6ft 11s 7s 13 16 mph 1018.9mb 55f 52f
5:50pm 5.5ft 11s 7s 18 20 mph 1018.8mb 55f 53f
4:50pm 6ft 11s 7s 16 20 mph 1019.1mb 55f 53f
3:50pm 6ft 11s 8s 16 18 mph 1019.5mb 56f 53f
2:50pm 6.5ft 11s 8s 11 13 mph 1020.1mb 56f 52f
1:50pm 6.5ft 11s 8s 11 13 mph 1020.7mb 55f 52f
12:50pm 7ft 11s 8s 9 11 mph 1021.6mb 55f 51f
11:50am 6.5ft 11s 8s 9 13 mph 1021.9mb 55f 51f
10:50am 6.5ft 11s 8s 11 13 mph 1022mb 54f 52f
9:50am 6.5ft 11s 8s 11 13 mph 1022.1mb 54f 51f
8:50am 6.5ft 11s 8s 9 11 mph 1021.7mb 54f 51f
7:50am 6ft 11s 7s 9 11 mph 1021.4mb 54f 51f
6:50am 6ft 11s 7s 11 13 mph 1020.9mb 54f 52f
5:50am 6ft 12s 7s 13 16 mph 1020.7mb 54f 52f
4:50am 6.5ft 12s 7s 13 16 mph 1020.5mb 55f 52f
3:50am 6.5ft 11s 6s 16 18 mph 1020.4mb 55f 52f
2:50am 7ft 11s 6s 16 20 mph 1020.7mb 55f 52f
1:50am 7ft 10s 6s 20 25 mph 1020.8mb 55f 53f
12:50am 7ft 11s 6s 20 27 mph 1021.2mb 55f 53f
Wed 03/25 11:50pm 7.5ft 11s 6s 22 27 mph 1021.5mb 55f 54f
10:50pm 8ft 6s 6s 25 29 mph 1021.4mb 55f 55f
9:50pm 8ft 7s 6s 27 34 mph 1021.4mb 55f 55f
8:50pm 7.5ft 6s 5s 27 34 mph 1021.3mb 55f 55f
7:50pm 8ft 6s 6s 27 36 mph 1021mb 55f 55f
6:50pm 8ft 11s 6s 29 34 mph 1021.1mb 55f 55f
5:50pm 7.5ft 11s 6s 27 31 mph 1021.5mb 55f 55f
4:50pm 8ft 11s 6s 25 29 mph 1021.9mb 55f 55f
3:50pm 7ft 11s 6s 22 27 mph 1022.3mb 55f 55f
2:50pm 7.5ft 11s 6s 20 22 mph 1023mb 55f 56f
1:50pm 7ft 11s 6s 20 25 mph 1023.6mb 55f 55f
12:50pm 7ft 11s 6s 20 25 mph 1024.1mb 55f 55f
11:50am 7.5ft 11s 7s 22 27 mph 1024.4mb 55f 55f
10:50am 7.5ft 11s 7s 18 22 mph 1024.4mb 55f 55f
9:50am 8ft 12s 7s 20 22 mph 1023.9mb 55f 55f
8:50am 8ft 11s 7s 20 25 mph 1023.6mb 55f 55f
7:50am 8ft 12s 7s 20 25 mph 1023.4mb 55f 55f
6:50am 8.5ft 11s 7s 20 25 mph 1023.1mb 55f 55f
5:50am 8.5ft 12s 7s 20 25 mph 1022.8mb 54f 55f
4:50am 8.5ft 12s 7s 20 22 mph 1022.8mb 55f 54f
3:50am 8.5ft 11s 7s 22 25 mph 1023.3mb 55f 53f
2:50am 8.5ft 12s 7s 22 27 mph 1023.5mb 55f 55f
1:50am 8ft 11s 7s 22 27 mph 1023.6mb 55f 56f